Time;durP1;ratioP1;P1;durP2;ratioP2;P2;SDS_P1;SDS_P2;PMS_P1;PMS_P2;Temp;Humidity;BMP_temperature;BMP_pressure;BME280_temperature;BME280_humidity;BME280_pressure;Samples;Min_cycle;Max_cycle;Signal;HPM_P1;HPM_P2
2021/11/28 00:00:06;;;;;;;15.07;8.27;;;;;;;2.26;88.69;95983.41;4987732;28;20030;-57
2021/11/28 00:02:34;;;;;;;13.35;8.38;;;;;;;2.06;92.36;95987.63;4990054;28;20034;-57
2021/11/28 00:05:01;;;;;;;11.35;7.25;;;;;;;2.31;89.29;95981.47;4987505;28;20651;-58
2021/11/28 00:12:46;;;;;;;12.60;7.95;;;;;;;2.07;92.04;95979.00;4991005;28;20030;-56
2021/11/28 00:15:18;;;;;;;275.02;19.58;;;;;;;2.09;95.46;95989.22;4986580;28;20471;-56
2021/11/28 00:17:45;;;;;;;34.47;8.57;;;;;;;1.63;97.74;95981.56;4988624;28;20052;-57
2021/11/28 00:20:15;;;;;;;27.83;7.63;;;;;;;1.54;96.09;95989.59;4989342;28;20038;-55
2021/11/28 00:22:42;;;;;;;12.18;7.40;;;;;;;1.91;94.23;95990.78;4991551;28;20100;-57
2021/11/28 00:25:11;;;;;;;10.25;6.85;;;;;;;2.21;96.64;95985.34;4993411;28;20117;-57
2021/11/28 00:27:38;;;;;;;10.55;7.20;;;;;;;2.47;92.83;95982.53;4994165;28;20057;-56
2021/11/28 00:30:05;;;;;;;12.70;7.32;;;;;;;2.02;93.33;95985.22;4992460;28;20030;-57
2021/11/28 00:32:31;;;;;;;55.47;9.55;;;;;;;2.12;97.51;96002.81;4992125;28;20037;-57
2021/11/28 00:34:56;;;;;;;11.23;7.13;;;;;;;2.67;94.15;95993.75;4993142;28;20030;-56
2021/11/28 00:37:22;;;;;;;15.88;7.65;;;;;;;2.98;93.94;95987.28;4993008;28;20125;-58
2021/11/28 00:39:48;;;;;;;12.60;7.68;;;;;;;2.99;87.58;95974.34;4992640;28;20025;-55
2021/11/28 00:42:14;;;;;;;13.60;7.70;;;;;;;2.04;91.75;95968.00;4993370;28;20108;-55
2021/11/28 00:44:40;;;;;;;15.05;8.25;;;;;;;1.71;98.69;95965.88;4993639;28;20080;-57
2021/11/28 00:47:06;;;;;;;11.90;7.55;;;;;;;2.39;93.64;95958.88;4993233;28;20046;-57
2021/11/28 00:49:34;;;;;;;12.27;7.60;;;;;;;1.51;91.50;95969.19;4995159;28;20468;-57
2021/11/28 00:51:59;;;;;;;9.88;6.72;;;;;;;2.57;90.82;95961.56;4992527;28;20091;-58
2021/11/28 00:54:27;;;;;;;13.75;7.47;;;;;;;1.82;93.23;95952.56;4994463;28;20041;-56
2021/11/28 00:56:54;;;;;;;13.45;7.53;;;;;;;2.39;95.11;95952.88;4993284;28;20220;-55
2021/11/28 00:59:19;;;;;;;13.52;8.07;;;;;;;2.39;91.13;95952.88;4992439;28;20502;-56
2021/11/28 01:01:45;;;;;;;15.32;8.35;;;;;;;1.80;95.37;95944.09;4992375;28;20046;-56
2021/11/28 01:04:11;;;;;;;11.23;6.72;;;;;;;2.79;96.52;95936.59;4993171;28;20109;-57
2021/11/28 01:06:37;;;;;;;14.48;7.90;;;;;;;1.72;88.71;95947.78;5000691;28;20054;-57
2021/11/28 01:09:07;;;;;;;15.60;8.20;;;;;;;1.35;90.38;95938.91;4990644;28;20022;-55
2021/11/28 01:11:33;;;;;;;15.95;8.77;;;;;;;1.12;91.38;95951.75;4991096;28;20042;-56
2021/11/28 01:13:59;;;;;;;17.20;8.77;;;;;;;1.62;90.87;95951.63;4991394;28;20041;-56
2021/11/28 01:16:25;;;;;;;13.38;7.50;;;;;;;2.26;90.47;95942.25;4992000;28;20042;-55
2021/11/28 01:18:51;;;;;;;21.67;8.95;;;;;;;2.00;88.30;95941.56;4993593;28;20029;-56
2021/11/28 01:21:17;;;;;;;15.65;8.10;;;;;;;2.01;87.71;95932.97;4989604;28;20532;-56
2021/11/28 01:23:43;;;;;;;14.18;8.18;;;;;;;2.12;86.26;95932.53;4991717;28;20037;-56
2021/11/28 01:26:08;;;;;;;14.52;7.20;;;;;;;2.41;88.93;95931.34;4992470;28;20078;-57
2021/11/28 01:28:33;;;;;;;13.02;8.45;;;;;;;2.61;84.62;95924.50;4991972;28;20030;-55
2021/11/28 01:30:59;;;;;;;11.23;7.43;;;;;;;2.27;85.51;95933.66;4992871;28;20682;-55
2021/11/28 01:33:25;;;;;;;11.93;7.13;;;;;;;2.42;89.95;95943.28;4991559;28;20025;-57
2021/11/28 01:35:50;;;;;;;13.65;8.27;;;;;;;2.34;92.26;95950.50;4993195;28;20049;-56
2021/11/28 01:38:19;;;;;;;18.38;9.13;;;;;;;2.47;91.41;95951.66;4991474;28;20048;-55
2021/11/28 01:40:47;;;;;;;17.15;9.48;;;;;;;2.38;94.68;95952.03;4987672;28;20104;-56
2021/11/28 01:43:13;;;;;;;17.25;9.60;;;;;;;2.01;93.48;95952.72;4990154;28;20026;-56
2021/11/28 01:45:40;;;;;;;19.77;9.27;;;;;;;2.31;94.58;95946.31;4992599;28;20401;-57
2021/11/28 01:48:08;;;;;;;17.77;9.93;;;;;;;1.78;88.49;95956.16;4992492;28;20080;-56
2021/11/28 01:50:35;;;;;;;16.45;9.40;;;;;;;1.69;88.31;95958.22;4992058;28;20543;-55
2021/11/28 01:53:05;;;;;;;14.70;8.43;;;;;;;2.00;93.64;95961.31;4993260;28;20034;-55
2021/11/28 01:55:32;;;;;;;14.10;8.05;;;;;;;2.11;89.21;95962.56;4993216;28;20400;-56
2021/11/28 01:57:58;;;;;;;13.88;8.05;;;;;;;2.23;90.22;95952.69;4992003;28;20041;-56
2021/11/28 02:00:27;;;;;;;15.23;8.45;;;;;;;1.47;88.67;95947.06;4991454;28;20472;-56
2021/11/28 02:02:53;;;;;;;15.10;8.40;;;;;;;0.97;91.19;95950.59;4990853;28;20762;-57
2021/11/28 02:05:21;;;;;;;14.07;8.70;;;;;;;1.12;90.58;95951.75;4992435;28;20695;-56
2021/11/28 02:07:46;;;;;;;14.60;8.48;;;;;;;1.22;91.54;95955.69;4990515;28;20070;-57
2021/11/28 02:10:13;;;;;;;17.98;9.60;;;;;;;1.68;88.08;95956.53;4992107;28;20081;-55
2021/11/28 02:12:39;;;;;;;15.40;8.70;;;;;;;1.88;85.97;95962.63;4991574;28;20133;-56
2021/11/28 02:15:06;;;;;;;15.73;8.85;;;;;;;2.05;86.03;95949.09;4990648;28;20874;-57
2021/11/28 02:17:32;;;;;;;16.05;8.80;;;;;;;1.42;88.33;95948.97;4991866;28;20748;-56
2021/11/28 02:19:57;;;;;;;14.25;8.55;;;;;;;1.57;90.56;95953.53;4989889;28;20122;-57
2021/11/28 02:22:23;;;;;;;15.00;8.95;;;;;;;1.47;90.45;95945.34;4991346;28;20041;-56
2021/11/28 02:24:48;;;;;;;14.18;8.30;;;;;;;1.98;91.83;95948.50;4991125;28;20025;-57
2021/11/28 02:27:14;;;;;;;16.67;8.55;;;;;;;2.00;91.58;95951.03;4992819;28;20037;-56
2021/11/28 02:29:44;;;;;;;15.63;8.15;;;;;;;1.49;89.18;95945.25;4993250;28;20054;-57
2021/11/28 02:32:11;;;;;;;14.27;8.52;;;;;;;1.07;90.08;95949.38;4986217;28;20038;-57
2021/11/28 02:34:37;;;;;;;17.50;8.55;;;;;;;1.71;91.72;95946.13;4991541;28;20038;-56
2021/11/28 02:37:04;;;;;;;15.02;8.50;;;;;;;1.93;86.76;95945.31;4996438;28;20044;-55
2021/11/28 02:39:32;;;;;;;18.25;8.95;;;;;;;1.33;88.09;95945.03;4992443;28;20028;-56
2021/11/28 02:41:57;;;;;;;16.83;9.00;;;;;;;1.75;89.79;95941.72;4992045;28;20432;-56
2021/11/28 02:44:23;;;;;;;15.57;8.52;;;;;;;1.56;88.68;95940.75;4992623;28;20022;-56
2021/11/28 02:46:48;;;;;;;12.10;7.68;;;;;;;1.67;90.33;95939.44;4989868;28;20037;-56
2021/11/28 02:49:15;;;;;;;17.98;9.13;;;;;;;1.04;91.04;95936.66;4989957;28;20037;-56
2021/11/28 02:51:42;;;;;;;13.50;8.07;;;;;;;1.39;91.50;95938.81;4988786;28;20741;-55
2021/11/28 02:54:08;;;;;;;14.82;7.97;;;;;;;1.64;90.89;95937.00;4989575;28;20026;-57
2021/11/28 02:56:34;;;;;;;17.92;8.60;;;;;;;1.66;91.75;95942.91;4999176;28;20117;-56
2021/11/28 02:59:01;;;;;;;13.75;7.32;;;;;;;1.84;91.88;95941.34;4991060;28;20021;-56
2021/11/28 03:01:26;;;;;;;12.18;7.57;;;;;;;2.00;88.71;95931.28;4989341;28;20153;-57
2021/11/28 03:03:53;;;;;;;13.15;7.80;;;;;;;1.73;87.56;95936.63;4991327;28;20498;-57
2021/11/28 03:06:19;;;;;;;12.93;6.85;;;;;;;1.48;88.44;95933.34;4990435;28;20034;-57
2021/11/28 03:08:44;;;;;;;11.98;7.50;;;;;;;1.69;90.06;95940.22;4990659;28;20038;-56
2021/11/28 03:11:12;;;;;;;11.82;7.25;;;;;;;1.86;90.12;95934.41;4992527;28;20076;-56
2021/11/28 03:13:44;;;;;;;13.82;7.70;;;;;;;1.35;89.69;95944.06;4992494;28;20030;-56
2021/11/28 03:16:12;;;;;;;12.82;7.35;;;;;;;1.87;91.00;95942.94;4988614;28;20070;-56
2021/11/28 03:18:38;;;;;;;15.18;7.65;;;;;;;1.77;87.54;95941.66;4991305;28;20714;-55
2021/11/28 03:21:13;;;;;;;14.63;7.88;;;;;;;1.79;88.60;95940.69;4991841;28;20516;-56
2021/11/28 03:23:41;;;;;;;13.13;7.53;;;;;;;1.68;88.27;95935.13;4990892;28;20113;-56
2021/11/28 03:26:11;;;;;;;14.60;7.43;;;;;;;1.65;90.98;95936.06;4990588;28;20042;-56
2021/11/28 03:28:39;;;;;;;14.95;7.45;;;;;;;1.00;89.53;95921.44;4987614;28;20041;-57
2021/11/28 03:31:05;;;;;;;12.40;7.65;;;;;;;1.37;91.58;95925.19;4990734;28;20038;-56
2021/11/28 03:33:31;;;;;;;13.23;8.20;;;;;;;1.81;88.90;95920.91;4988693;28;20034;-56
2021/11/28 03:35:57;;;;;;;14.20;7.78;;;;;;;1.65;90.09;95915.50;5000616;28;20081;-55
2021/11/28 03:38:22;;;;;;;12.77;7.30;;;;;;;2.03;89.26;95917.47;4990542;28;20022;-56
2021/11/28 03:40:47;;;;;;;10.82;6.90;;;;;;;1.93;87.66;95922.16;4991388;28;20523;-57
2021/11/28 03:43:13;;;;;;;16.42;8.40;;;;;;;1.79;90.09;95927.00;4991705;28;20656;-57
2021/11/28 03:45:38;;;;;;;16.98;8.15;;;;;;;1.92;90.10;95917.91;4988956;28;20049;-56
2021/11/28 03:48:05;;;;;;;13.40;7.10;;;;;;;1.93;89.52;95924.75;4991899;28;20030;-57
2021/11/28 03:50:30;;;;;;;13.45;7.65;;;;;;;2.18;89.91;95932.28;4992281;28;20034;-57
2021/11/28 03:52:56;;;;;;;13.48;7.85;;;;;;;1.68;90.15;95928.25;4989485;28;20064;-56
2021/11/28 03:55:23;;;;;;;14.15;8.18;;;;;;;1.92;88.35;95925.63;4990534;28;20690;-56
2021/11/28 03:57:48;;;;;;;16.05;8.38;;;;;;;1.77;87.29;95928.81;4992436;28;20042;-56
2021/11/28 04:00:14;;;;;;;14.05;8.05;;;;;;;1.93;87.91;95922.16;4994524;28;20026;-57
2021/11/28 04:02:40;;;;;;;12.30;7.65;;;;;;;1.68;88.93;95925.69;4994124;28;20029;-56
2021/11/28 04:05:08;;;;;;;15.35;7.63;;;;;;;1.78;87.13;95930.47;4999620;28;20049;-57
2021/11/28 04:07:33;;;;;;;14.85;8.05;;;;;;;1.12;90.54;95932.09;4994340;28;20030;-57
2021/11/28 04:09:59;;;;;;;14.32;6.88;;;;;;;1.72;89.89;95932.38;4993112;28;20412;-58
2021/11/28 04:12:24;;;;;;;10.20;6.55;;;;;;;2.20;89.90;95934.78;4991792;28;20401;-57
2021/11/28 04:14:50;;;;;;;12.93;8.02;;;;;;;1.30;90.25;95930.53;4997290;28;20063;-57
2021/11/28 04:17:15;;;;;;;13.48;7.90;;;;;;;1.16;92.32;95927.69;4992327;28;20053;-56
2021/11/28 04:19:41;;;;;;;13.18;7.45;;;;;;;1.45;89.31;95929.16;4994276;28;20061;-57
2021/11/28 04:22:06;;;;;;;12.75;7.65;;;;;;;1.41;88.90;95929.31;4976565;28;20037;-56
2021/11/28 04:24:32;;;;;;;12.98;7.60;;;;;;;1.48;88.03;95923.06;4992506;28;20030;-57
2021/11/28 04:26:58;;;;;;;12.55;7.30;;;;;;;0.95;90.18;95919.84;4994811;28;20120;-56
2021/11/28 04:29:24;;;;;;;13.57;7.05;;;;;;;0.79;92.63;95916.19;4992632;28;20120;-57
2021/11/28 04:31:49;;;;;;;13.63;7.80;;;;;;;1.43;91.33;95917.25;4990727;28;20046;-56
2021/11/28 04:34:15;;;;;;;14.23;7.57;;;;;;;1.53;91.24;95921.16;4993603;28;20049;-56
2021/11/28 04:36:41;;;;;;;15.27;7.25;;;;;;;1.80;90.10;95923.53;4991259;28;20035;-56
2021/11/28 04:39:07;;;;;;;11.60;7.18;;;;;;;1.96;91.14;95919.44;4993496;28;20040;-56
2021/11/28 04:41:32;;;;;;;15.82;8.05;;;;;;;2.11;90.92;95918.00;5001141;28;20042;-55
2021/11/28 04:43:58;;;;;;;14.93;8.05;;;;;;;1.95;88.80;95916.94;4992531;28;20026;-57
2021/11/28 04:46:24;;;;;;;16.25;7.47;;;;;;;1.68;91.70;95920.53;4994223;28;20041;-56
2021/11/28 04:48:50;;;;;;;12.85;7.75;;;;;;;1.88;89.89;95934.34;4996728;28;20029;-57
2021/11/28 04:51:16;;;;;;;10.52;6.63;;;;;;;2.41;90.92;95936.50;4992045;28;20052;-55
2021/11/28 04:53:41;;;;;;;12.82;7.45;;;;;;;2.39;88.25;95933.16;4992492;28;20101;-56
2021/11/28 04:56:06;;;;;;;11.20;6.80;;;;;;;2.42;89.43;95938.13;4992821;28;20069;-57
2021/11/28 04:58:32;;;;;;;13.73;8.10;;;;;;;2.14;88.06;95942.75;4993747;28;20050;-57
2021/11/28 05:00:57;;;;;;;12.25;7.50;;;;;;;2.00;88.55;95933.84;4993036;28;20038;-56
2021/11/28 05:03:22;;;;;;;13.10;7.45;;;;;;;1.81;89.97;95931.19;4992690;28;20503;-56
2021/11/28 05:05:48;;;;;;;12.48;7.30;;;;;;;1.61;90.17;95924.25;4997802;28;20038;-57
2021/11/28 05:08:13;;;;;;;13.45;7.93;;;;;;;1.89;90.40;95928.31;4992507;28;20581;-56
2021/11/28 05:10:39;;;;;;;12.25;7.35;;;;;;;1.26;88.99;95929.00;4993861;28;20034;-56
2021/11/28 05:13:04;;;;;;;11.30;7.10;;;;;;;1.69;89.90;95921.38;4994361;28;20113;-56
2021/11/28 05:15:29;;;;;;;12.23;7.03;;;;;;;1.37;87.94;95923.47;4992048;28;20034;-57
2021/11/28 05:17:55;;;;;;;12.90;7.18;;;;;;;1.13;89.82;95917.50;4992207;28;20072;-57
2021/11/28 05:20:20;;;;;;;16.27;7.78;;;;;;;1.72;87.49;95922.09;4992567;28;20037;-55
2021/11/28 05:22:46;;;;;;;14.38;7.30;;;;;;;1.77;88.51;95923.66;4992435;28;20033;-56
2021/11/28 05:25:12;;;;;;;13.32;7.45;;;;;;;0.98;90.07;95913.78;4992564;28;20129;-57
2021/11/28 05:27:38;;;;;;;14.05;7.63;;;;;;;0.98;91.03;95913.78;4990259;28;20124;-57
2021/11/28 05:30:05;;;;;;;12.10;7.07;;;;;;;2.06;90.14;95918.19;4991573;28;20026;-57
2021/11/28 05:32:31;;;;;;;12.07;7.22;;;;;;;1.94;89.10;95916.09;4992044;28;20098;-57
2021/11/28 05:34:56;;;;;;;13.38;7.78;;;;;;;1.78;89.67;95920.19;4992851;28;21192;-56
2021/11/28 05:37:22;;;;;;;14.13;7.95;;;;;;;1.30;89.81;95917.69;4991229;28;20047;-55
2021/11/28 05:39:48;;;;;;;14.23;7.80;;;;;;;1.38;90.15;95919.16;4992001;28;20953;-55
2021/11/28 05:42:14;;;;;;;14.18;8.00;;;;;;;1.31;91.26;95924.53;4991626;28;20045;-56
2021/11/28 05:44:39;;;;;;;12.65;7.30;;;;;;;1.40;90.40;95920.78;4993496;28;20063;-55
2021/11/28 05:47:05;;;;;;;13.07;7.40;;;;;;;1.70;88.33;95929.03;4990555;28;20034;-56
2021/11/28 05:49:31;;;;;;;12.73;7.43;;;;;;;1.87;91.81;95930.09;4990847;28;20073;-57
2021/11/28 05:51:56;;;;;;;14.68;8.20;;;;;;;1.94;93.28;95926.41;4990804;28;20057;-56
2021/11/28 05:54:22;;;;;;;13.52;7.28;;;;;;;1.98;91.74;95932.25;4992231;28;20477;-56
2021/11/28 05:56:47;;;;;;;21.73;8.18;;;;;;;2.04;95.12;95932.84;4989371;28;20045;-57
2021/11/28 05:59:13;;;;;;;16.85;8.18;;;;;;;2.14;95.55;95935.06;4992650;28;20108;-57
2021/11/28 06:01:38;;;;;;;16.25;7.75;;;;;;;2.11;92.44;95929.13;4988810;28;20061;-55
2021/11/28 06:04:04;;;;;;;12.35;7.43;;;;;;;1.77;90.52;95934.78;5002689;28;20026;-55
2021/11/28 06:06:30;;;;;;;15.93;7.15;;;;;;;1.31;90.12;95941.69;4989756;28;20100;-56
2021/11/28 06:08:55;;;;;;;13.40;7.18;;;;;;;1.90;94.25;95938.53;4992150;28;20030;-56
2021/11/28 06:11:21;;;;;;;11.60;7.15;;;;;;;1.96;91.72;95934.88;4992263;28;20037;-56
2021/11/28 06:13:47;;;;;;;13.07;6.97;;;;;;;1.78;90.89;95945.88;4991981;28;20128;-57
2021/11/28 06:16:12;;;;;;;13.45;7.00;;;;;;;2.09;90.65;95946.34;4990261;28;20045;-56
2021/11/28 06:18:38;;;;;;;17.23;7.88;;;;;;;2.05;91.32;95942.22;4992446;28;20022;-55
2021/11/28 06:21:03;;;;;;;14.77;7.93;;;;;;;1.97;92.61;95936.56;4989999;28;20562;-56
2021/11/28 06:23:28;;;;;;;12.50;7.45;;;;;;;2.21;92.18;95939.06;4992878;28;20483;-57
2021/11/28 06:25:54;;;;;;;15.48;7.50;;;;;;;1.82;90.99;95947.44;4989624;28;20452;-55
2021/11/28 06:28:19;;;;;;;15.25;7.75;;;;;;;1.68;93.14;95943.69;4989577;28;20022;-57
2021/11/28 06:30:45;;;;;;;12.05;7.25;;;;;;;2.18;88.85;95944.31;4989351;28;20042;-56
2021/11/28 06:33:10;;;;;;;13.00;7.18;;;;;;;2.04;89.54;95957.72;4990003;28;20030;-57
2021/11/28 06:35:36;;;;;;;12.90;7.28;;;;;;;1.49;90.23;95955.53;4991021;28;20129;-55
2021/11/28 06:38:01;;;;;;;15.18;7.07;;;;;;;1.57;91.50;95958.66;4990843;28;20057;-56
2021/11/28 06:40:26;;;;;;;11.98;7.00;;;;;;;1.87;89.93;95963.53;4990552;28;20037;-55
2021/11/28 06:42:52;;;;;;;15.35;8.10;;;;;;;1.84;89.72;95959.34;4992609;28;20384;-54
2021/11/28 06:45:18;;;;;;;12.98;7.10;;;;;;;1.74;91.69;95958.84;4989604;28;20030;-57
2021/11/28 06:47:44;;;;;;;17.55;8.05;;;;;;;1.93;89.77;95961.56;4989731;28;20535;-55
2021/11/28 06:50:11;;;;;;;13.95;7.47;;;;;;;1.86;89.04;95972.97;4990195;28;20030;-57
2021/11/28 06:52:36;;;;;;;15.98;9.05;;;;;;;2.12;88.70;95971.09;4990368;28;20192;-55
2021/11/28 06:55:02;;;;;;;14.32;8.07;;;;;;;2.32;88.27;95967.75;4988880;28;20018;-55
2021/11/28 06:57:28;;;;;;;15.75;8.65;;;;;;;2.02;88.27;95969.78;4992763;28;20049;-55
2021/11/28 06:59:53;;;;;;;15.40;8.77;;;;;;;1.91;89.46;95968.50;4989629;28;20026;-54
2021/11/28 07:02:19;;;;;;;18.40;8.65;;;;;;;1.97;89.77;95969.13;4992059;28;20100;-56
2021/11/28 07:04:45;;;;;;;15.38;7.43;;;;;;;1.94;87.77;95972.66;4991890;28;20032;-55
2021/11/28 07:07:10;;;;;;;17.30;8.30;;;;;;;1.94;90.33;95970.09;4990143;28;20072;-56
2021/11/28 07:09:36;;;;;;;14.80;7.90;;;;;;;2.32;95.12;95967.75;4990271;28;20030;-56
2021/11/28 07:12:02;;;;;;;13.35;7.68;;;;;;;2.30;91.58;95970.38;4991288;28;20068;-55
2021/11/28 07:14:27;;;;;;;14.05;7.43;;;;;;;2.31;90.42;95966.06;4988797;28;20087;-56
2021/11/28 07:16:53;;;;;;;15.40;7.35;;;;;;;2.27;90.54;95973.06;4989766;28;20096;-55
2021/11/28 07:19:18;;;;;;;10.85;6.45;;;;;;;2.71;90.15;95979.84;4989106;28;20022;-56
2021/11/28 07:21:44;;;;;;;10.60;6.65;;;;;;;2.97;89.84;95972.75;4989009;28;20058;-60
2021/11/28 07:24:09;;;;;;;12.88;7.03;;;;;;;2.24;85.84;95969.78;4992425;28;20471;-55
2021/11/28 07:26:35;;;;;;;11.95;7.07;;;;;;;2.16;90.98;95974.41;4988171;28;20050;-55
2021/11/28 07:29:00;;;;;;;13.82;7.38;;;;;;;2.57;92.04;95977.84;4988534;28;20026;-56
2021/11/28 07:31:26;;;;;;;14.50;7.68;;;;;;;2.34;88.01;95971.09;4990914;28;20042;-54
2021/11/28 07:33:51;;;;;;;14.05;8.55;;;;;;;2.67;87.54;95979.13;4989834;28;20050;-57
2021/11/28 07:36:17;;;;;;;13.27;7.40;;;;;;;1.88;89.03;95978.88;4990848;28;20065;-54
2021/11/28 07:38:44;;;;;;;11.60;7.18;;;;;;;1.65;90.85;95979.75;4989415;28;20030;-55
2021/11/28 07:41:11;;;;;;;15.27;7.63;;;;;;;2.25;93.77;95976.59;4990062;28;20073;-55
2021/11/28 07:43:36;;;;;;;12.35;7.25;;;;;;;2.36;87.60;95978.75;4992935;28;20484;-55
2021/11/28 07:46:03;;;;;;;18.40;7.78;;;;;;;2.31;89.12;95981.47;4988531;28;20526;-57
2021/11/28 07:48:28;;;;;;;13.48;7.50;;;;;;;2.05;91.12;95985.09;4989779;28;20058;-54
2021/11/28 07:50:54;;;;;;;14.50;7.28;;;;;;;2.07;92.03;95978.16;4990351;28;20225;-54
2021/11/28 07:53:19;;;;;;;13.57;6.78;;;;;;;2.40;89.81;95978.53;4991670;28;20030;-56
2021/11/28 07:55:45;;;;;;;12.85;7.13;;;;;;;2.21;90.35;95977.63;4991467;28;20039;-55
2021/11/28 07:58:10;;;;;;;13.20;6.97;;;;;;;2.36;89.98;95977.00;4989830;28;20125;-56
2021/11/28 08:00:37;;;;;;;15.52;7.60;;;;;;;2.14;93.40;95984.75;4995306;28;20058;-55
2021/11/28 08:03:02;;;;;;;16.52;7.63;;;;;;;2.41;90.13;95976.78;4989971;28;20045;-57
2021/11/28 08:05:30;;;;;;;17.00;7.85;;;;;;;1.95;90.92;95984.63;4993257;28;20048;-56
2021/11/28 08:07:55;;;;;;;13.77;7.75;;;;;;;1.74;92.44;95981.16;4989641;28;20111;-55
2021/11/28 08:10:21;;;;;;;15.60;8.57;;;;;;;2.47;93.94;95972.25;4992079;28;20101;-55
2021/11/28 08:12:47;;;;;;;12.60;7.65;;;;;;;2.48;91.72;95973.06;4988445;28;20022;-55
2021/11/28 08:15:21;;;;;;;17.60;8.88;;;;;;;2.58;94.23;95974.38;4987237;28;20022;-56
2021/11/28 08:17:48;;;;;;;16.50;8.43;;;;;;;2.47;90.13;95977.38;4987401;28;20037;-55
2021/11/28 08:20:15;;;;;;;12.98;7.40;;;;;;;2.54;90.66;95977.97;4988056;28;20572;-56
2021/11/28 08:22:41;;;;;;;16.33;8.68;;;;;;;2.32;90.14;95967.75;4992003;28;20065;-55
2021/11/28 08:25:09;;;;;;;16.30;9.20;;;;;;;2.66;91.50;95974.06;4986365;28;20126;-57
2021/11/28 08:27:34;;;;;;;13.70;8.13;;;;;;;2.17;92.36;95969.19;4991008;28;20049;-55
2021/11/28 08:30:04;;;;;;;15.73;8.65;;;;;;;2.62;93.15;95972.50;4989941;28;20391;-56
2021/11/28 08:32:29;;;;;;;17.48;9.18;;;;;;;2.71;91.21;95982.41;4988853;28;20034;-55
2021/11/28 08:34:55;;;;;;;14.82;8.70;;;;;;;2.34;89.40;95973.66;4990042;28;20099;-56
2021/11/28 08:37:20;;;;;;;14.85;8.23;;;;;;;2.30;89.89;95974.69;4989848;28;20088;-55
2021/11/28 08:39:46;;;;;;;15.15;8.10;;;;;;;2.50;90.62;95974.69;4988232;28;20031;-57
2021/11/28 08:42:13;;;;;;;14.82;8.30;;;;;;;2.72;88.40;95981.53;4990394;28;20050;-55
2021/11/28 08:44:39;;;;;;;16.55;8.45;;;;;;;2.17;89.89;95968.34;4992462;28;20056;-55
2021/11/28 08:47:05;;;;;;;16.60;8.48;;;;;;;2.48;93.24;95973.06;4993663;28;20034;-57
2021/11/28 08:49:30;;;;;;;16.50;8.60;;;;;;;2.84;95.32;95969.88;4994796;28;20023;-55
2021/11/28 08:51:56;;;;;;;15.30;9.10;;;;;;;3.12;90.52;95966.91;4992403;28;20042;-56
2021/11/28 08:54:21;;;;;;;17.85;9.25;;;;;;;2.45;90.16;95976.63;4993918;28;20395;-56
2021/11/28 08:56:50;;;;;;;17.40;9.18;;;;;;;3.04;90.19;95979.31;4993945;28;20653;-56
2021/11/28 08:59:17;;;;;;;18.77;10.27;;;;;;;2.93;90.93;95978.94;4991903;28;20025;-56
2021/11/28 09:01:42;;;;;;;23.40;11.38;;;;;;;3.31;90.63;95974.69;4991895;28;20541;-57
2021/11/28 09:04:08;;;;;;;19.05;10.98;;;;;;;2.94;88.69;95984.03;4993833;28;20029;-56
2021/11/28 09:06:33;;;;;;;27.27;11.93;;;;;;;2.84;92.51;95991.28;4989609;28;20104;-55
2021/11/28 09:08:59;;;;;;;16.77;8.40;;;;;;;2.27;91.70;95992.81;4993289;28;20033;-56
2021/11/28 09:11:24;;;;;;;18.13;9.05;;;;;;;2.58;91.89;95999.28;4989595;28;20608;-56
2021/11/28 09:13:50;;;;;;;17.95;9.05;;;;;;;2.63;92.49;95992.22;4993589;28;20039;-55
2021/11/28 09:16:15;;;;;;;18.13;8.88;;;;;;;3.26;92.88;95997.25;4991324;28;20037;-56
2021/11/28 09:21:07;;;;;;;15.63;8.32;;;;;;;2.99;91.70;95999.28;4991965;28;20045;-56
2021/11/28 09:26:17;;;;;;;13.68;8.55;;;;;;;3.08;88.70;95988.56;4992546;28;20459;-56
2021/11/28 09:28:42;;;;;;;14.90;8.27;;;;;;;3.22;89.60;95993.97;4991297;28;20926;-56
2021/11/28 09:31:10;;;;;;;18.20;9.10;;;;;;;2.96;90.13;95991.66;4991444;28;20046;-56
2021/11/28 09:33:39;;;;;;;17.33;9.23;;;;;;;3.15;92.77;95995.13;4993374;28;20868;-57
2021/11/28 09:36:05;;;;;;;19.65;10.55;;;;;;;3.13;95.07;95996.94;4993442;28;20030;-56
2021/11/28 09:38:31;;;;;;;19.33;10.95;;;;;;;3.07;93.79;96002.38;4992713;28;20032;-56
2021/11/28 09:41:00;;;;;;;17.35;8.65;;;;;;;3.02;94.38;95999.16;4993081;28;20046;-56
2021/11/28 09:43:27;;;;;;;15.65;8.48;;;;;;;2.89;92.63;96002.25;4992930;28;20632;-57
2021/11/28 09:45:55;;;;;;;18.05;9.30;;;;;;;3.06;93.39;96000.69;4988567;28;20590;-57
2021/11/28 09:48:23;;;;;;;16.42;8.18;;;;;;;2.96;92.95;95984.78;4991274;28;20105;-55
2021/11/28 09:50:50;;;;;;;13.93;8.32;;;;;;;2.99;91.86;95999.28;4991527;28;20061;-55
2021/11/28 09:53:17;;;;;;;16.25;8.60;;;;;;;2.89;91.58;95984.22;4993392;28;20053;-56
2021/11/28 09:55:43;;;;;;;17.13;9.32;;;;;;;3.30;93.77;95983.31;4988701;28;20035;-57
2021/11/28 09:58:09;;;;;;;16.00;9.48;;;;;;;3.43;89.31;95978.44;4992616;28;20057;-57
2021/11/28 10:00:36;;;;;;;20.42;9.57;;;;;;;3.95;92.10;95970.06;4992998;28;20038;-56
2021/11/28 10:03:02;;;;;;;16.38;9.45;;;;;;;3.61;89.22;95977.63;4992543;28;20029;-56
2021/11/28 10:05:27;;;;;;;15.68;8.82;;;;;;;3.37;88.81;95976.16;4989508;28;20119;-56
2021/11/28 10:07:53;;;;;;;16.52;9.07;;;;;;;3.55;88.58;95980.47;4991266;28;20472;-57
2021/11/28 10:10:20;;;;;;;17.20;9.52;;;;;;;3.32;88.55;95976.34;4991340;28;20632;-56
2021/11/28 10:12:49;;;;;;;20.10;11.68;;;;;;;3.73;89.86;95975.38;4993187;28;20026;-58
2021/11/28 10:15:19;;;;;;;24.23;12.45;;;;;;;3.76;88.91;95970.09;4990528;28;20050;-57
2021/11/28 10:17:45;;;;;;;21.13;10.38;;;;;;;3.78;87.95;95970.84;4991452;28;20570;-56
2021/11/28 10:20:14;;;;;;;16.83;9.25;;;;;;;3.57;89.25;95970.09;4992520;28;20025;-58
2021/11/28 10:22:41;;;;;;;17.08;9.15;;;;;;;4.07;87.45;95968.66;4991371;28;20037;-57
2021/11/28 10:25:16;;;;;;;20.80;8.88;;;;;;;3.93;84.51;95967.53;4989104;28;20037;-56
2021/11/28 10:27:50;;;;;;;17.10;9.13;;;;;;;3.90;85.57;95961.69;4987886;28;20057;-56
2021/11/28 10:30:30;;;;;;;16.00;9.07;;;;;;;3.94;84.89;95966.66;4992177;28;20034;-57
2021/11/28 10:33:13;;;;;;;19.02;10.23;;;;;;;3.38;89.45;95964.94;4992247;28;20062;-57
2021/11/28 10:36:02;;;;;;;23.52;11.65;;;;;;;3.05;90.50;95968.94;4990512;28;20045;-56
2021/11/28 10:38:40;;;;;;;24.98;10.75;;;;;;;3.24;91.56;95963.81;4992035;28;20506;-56
2021/11/28 10:41:22;;;;;;;22.13;10.88;;;;;;;3.53;91.41;95963.41;4991777;28;20050;-56
2021/11/28 10:43:47;;;;;;;21.45;11.15;;;;;;;3.46;90.00;95957.69;4992664;28;20801;-57
2021/11/28 10:46:33;;;;;;;18.65;10.63;;;;;;;3.87;89.13;95957.53;4997680;28;20038;-56
2021/11/28 10:49:14;;;;;;;17.58;10.35;;;;;;;3.67;87.95;95950.72;4992577;28;20026;-57
2021/11/28 10:51:54;;;;;;;17.52;9.80;;;;;;;4.10;86.73;95947.84;4990382;28;20046;-57
2021/11/28 10:54:32;;;;;;;20.38;9.82;;;;;;;4.08;87.98;95952.25;4992388;28;20024;-55
2021/11/28 10:57:06;;;;;;;17.20;9.57;;;;;;;3.70;88.55;95949.75;4990249;28;20162;-56
2021/11/28 10:59:31;;;;;;;17.02;9.65;;;;;;;3.37;88.95;95952.97;4991788;28;20081;-56
2021/11/28 11:01:57;;;;;;;19.48;10.02;;;;;;;3.19;89.38;95950.28;4990726;28;20069;-55
2021/11/28 11:04:22;;;;;;;19.95;11.27;;;;;;;3.41;90.91;95949.34;4991531;28;20610;-55
2021/11/28 11:07:23;;;;;;;20.08;11.07;;;;;;;3.30;90.26;95946.41;4991009;28;20054;-57
2021/11/28 11:09:51;;;;;;;21.42;10.73;;;;;;;3.49;93.57;95952.38;4976046;28;20385;-56
2021/11/28 11:12:21;;;;;;;20.63;11.05;;;;;;;3.13;90.92;95950.56;4992627;28;20034;-55
2021/11/28 11:14:48;;;;;;;18.75;11.20;;;;;;;3.38;92.09;95949.47;4992163;28;20053;-56
2021/11/28 11:17:14;;;;;;;19.55;11.30;;;;;;;3.96;88.84;95946.78;4991848;28;20662;-56
2021/11/28 11:19:44;;;;;;;21.92;11.63;;;;;;;4.21;87.96;95945.59;4993389;28;20065;-56
2021/11/28 11:22:26;;;;;;;19.33;11.00;;;;;;;4.02;87.02;95943.88;4989675;28;20088;-56
2021/11/28 11:25:03;;;;;;;22.77;11.00;;;;;;;4.07;89.36;95948.84;4992493;28;20479;-56
2021/11/28 11:27:37;;;;;;;21.98;12.73;;;;;;;4.23;90.25;95946.38;4991886;28;20042;-56
2021/11/28 11:30:06;;;;;;;21.10;11.73;;;;;;;4.09;90.45;95941.03;4988192;28;20014;-56
2021/11/28 11:32:46;;;;;;;19.75;11.07;;;;;;;4.10;87.23;95950.44;4989180;28;20051;-56
2021/11/28 11:35:24;;;;;;;23.38;10.77;;;;;;;4.19;86.90;95949.97;4987295;28;20026;-58
2021/11/28 11:37:52;;;;;;;18.55;10.82;;;;;;;4.07;86.99;95956.59;4990223;28;20030;-56
2021/11/28 11:40:21;;;;;;;20.13;10.60;;;;;;;4.36;87.08;95955.19;4988506;28;20062;-57